Terminal Aerodrome Forecast
Issued by NWS

Home | Current Version | Previous Version | Graphics & Text | Print | Product List | Glossary On
Versions: 1 2 3 4 5 6 7 8 9 10 11 12 13
000
FTUS43 KFGF 261126
TAFBJI
TAF
KBJI 261126Z 2612/2712 VRB03KT P6SM SCT100
      TEMPO 2612/2614 1/4SM FG VV003
     FM261800 VRB05KT P6SM SCT070
     FM262100 VRB06KT P6SM VCSH BKN080
     FM270300 VRB04KT P6SM SCT100=

USA.gov is the U.S. government's official web portal to all federal, state and local government web resources and services.